sensor_id;sensor_type;location;lat;lon;timestamp;temperature;humidity
26103;DHT22;69760;49.380;8.998;2023-07-09T00:01:41;23.50;68.80
26103;DHT22;69760;49.380;8.998;2023-07-09T00:04:10;23.50;69.30
26103;DHT22;69760;49.380;8.998;2023-07-09T00:06:35;23.50;69.80
26103;DHT22;69760;49.380;8.998;2023-07-09T00:09:01;23.50;70.00
26103;DHT22;69760;49.380;8.998;2023-07-09T00:11:26;23.40;70.00
26103;DHT22;69760;49.380;8.998;2023-07-09T00:13:52;23.30;70.50
26103;DHT22;69760;49.380;8.998;2023-07-09T00:16:23;23.20;71.70
26103;DHT22;69760;49.380;8.998;2023-07-09T00:18:49;23.10;71.70
26103;DHT22;69760;49.380;8.998;2023-07-09T00:21:20;23.00;71.90
26103;DHT22;69760;49.380;8.998;2023-07-09T00:23:46;23.00;72.20
26103;DHT22;69760;49.380;8.998;2023-07-09T00:26:15;22.90;72.70
26103;DHT22;69760;49.380;8.998;2023-07-09T00:28:42;22.80;72.90
26103;DHT22;69760;49.380;8.998;2023-07-09T00:31:12;22.80;73.00
26103;DHT22;69760;49.380;8.998;2023-07-09T00:33:40;22.80;73.50
26103;DHT22;69760;49.380;8.998;2023-07-09T00:36:18;22.80;73.70
26103;DHT22;69760;49.380;8.998;2023-07-09T00:38:44;22.80;73.40
26103;DHT22;69760;49.380;8.998;2023-07-09T00:41:16;22.80;73.00
26103;DHT22;69760;49.380;8.998;2023-07-09T00:43:46;22.80;72.80
26103;DHT22;69760;49.380;8.998;2023-07-09T00:49:09;22.90;72.40
26103;DHT22;69760;49.380;8.998;2023-07-09T00:51:40;22.90;72.30
26103;DHT22;69760;49.380;8.998;2023-07-09T00:54:13;22.90;72.50
26103;DHT22;69760;49.380;8.998;2023-07-09T00:56:43;22.80;72.40
26103;DHT22;69760;49.380;8.998;2023-07-09T00:59:13;22.90;72.30
26103;DHT22;69760;49.380;8.998;2023-07-09T01:01:40;22.80;72.40
26103;DHT22;69760;49.380;8.998;2023-07-09T01:04:06;22.80;72.50
26103;DHT22;69760;49.380;8.998;2023-07-09T01:06:44;22.80;72.80
26103;DHT22;69760;49.380;8.998;2023-07-09T01:09:11;22.80;73.60
26103;DHT22;69760;49.380;8.998;2023-07-09T01:11:36;22.80;73.40
26103;DHT22;69760;49.380;8.998;2023-07-09T01:14:06;22.80;73.20
26103;DHT22;69760;49.380;8.998;2023-07-09T01:16:36;22.70;73.10
26103;DHT22;69760;49.380;8.998;2023-07-09T01:19:03;22.70;73.20
26103;DHT22;69760;49.380;8.998;2023-07-09T01:21:30;22.70;73.30
26103;DHT22;69760;49.380;8.998;2023-07-09T01:23:56;22.60;73.70
26103;DHT22;69760;49.380;8.998;2023-07-09T01:26:25;22.60;73.60
26103;DHT22;69760;49.380;8.998;2023-07-09T01:28:52;22.50;73.30
26103;DHT22;69760;49.380;8.998;2023-07-09T01:31:18;22.50;73.60
26103;DHT22;69760;49.380;8.998;2023-07-09T01:33:45;22.50;73.80
26103;DHT22;69760;49.380;8.998;2023-07-09T01:36:16;22.50;74.00
26103;DHT22;69760;49.380;8.998;2023-07-09T01:38:43;22.40;73.90
26103;DHT22;69760;49.380;8.998;2023-07-09T01:41:09;22.40;74.00
26103;DHT22;69760;49.380;8.998;2023-07-09T01:43:40;22.40;74.40
26103;DHT22;69760;49.380;8.998;2023-07-09T01:46:07;22.30;75.00
26103;DHT22;69760;49.380;8.998;2023-07-09T01:48:34;22.30;75.00
26103;DHT22;69760;49.380;8.998;2023-07-09T01:51:07;22.20;75.30
26103;DHT22;69760;49.380;8.998;2023-07-09T01:53:33;22.20;75.60
26103;DHT22;69760;49.380;8.998;2023-07-09T01:55:59;22.10;75.90
26103;DHT22;69760;49.380;8.998;2023-07-09T01:58:24;22.10;76.00
26103;DHT22;69760;49.380;8.998;2023-07-09T02:00:50;22.10;76.00
26103;DHT22;69760;49.380;8.998;2023-07-09T02:03:16;22.10;76.20
26103;DHT22;69760;49.380;8.998;2023-07-09T02:05:43;22.00;76.40
26103;DHT22;69760;49.380;8.998;2023-07-09T02:08:08;22.00;76.60
26103;DHT22;69760;49.380;8.998;2023-07-09T02:10:34;21.90;76.90
26103;DHT22;69760;49.380;8.998;2023-07-09T02:12:59;21.90;77.40
26103;DHT22;69760;49.380;8.998;2023-07-09T02:15:25;21.80;77.60
26103;DHT22;69760;49.380;8.998;2023-07-09T02:17:51;21.80;77.60
26103;DHT22;69760;49.380;8.998;2023-07-09T02:20:17;21.70;77.50
26103;DHT22;69760;49.380;8.998;2023-07-09T02:22:45;21.70;77.50
26103;DHT22;69760;49.380;8.998;2023-07-09T02:25:11;21.60;77.60
26103;DHT22;69760;49.380;8.998;2023-07-09T02:27:37;21.60;77.80
26103;DHT22;69760;49.380;8.998;2023-07-09T02:30:05;21.50;78.00
26103;DHT22;69760;49.380;8.998;2023-07-09T02:32:31;21.40;78.10
26103;DHT22;69760;49.380;8.998;2023-07-09T02:34:56;21.40;78.20
26103;DHT22;69760;49.380;8.998;2023-07-09T02:37:26;21.40;78.20
26103;DHT22;69760;49.380;8.998;2023-07-09T02:39:52;21.30;78.30
26103;DHT22;69760;49.380;8.998;2023-07-09T02:42:20;21.30;78.40
26103;DHT22;69760;49.380;8.998;2023-07-09T02:44:46;21.30;78.60
26103;DHT22;69760;49.380;8.998;2023-07-09T02:47:12;21.30;78.60
26103;DHT22;69760;49.380;8.998;2023-07-09T02:49:38;21.30;78.50
26103;DHT22;69760;49.380;8.998;2023-07-09T02:52:04;21.30;78.40
26103;DHT22;69760;49.380;8.998;2023-07-09T02:54:30;21.30;78.40
26103;DHT22;69760;49.380;8.998;2023-07-09T02:56:55;21.30;78.60
26103;DHT22;69760;49.380;8.998;2023-07-09T02:59:21;21.30;78.70
26103;DHT22;69760;49.380;8.998;2023-07-09T03:01:47;21.20;79.00
26103;DHT22;69760;49.380;8.998;2023-07-09T03:04:14;21.20;79.30
26103;DHT22;69760;49.380;8.998;2023-07-09T09:15:33;30.50;58.00
26103;DHT22;69760;49.380;8.998;2023-07-09T09:18:16;30.70;58.40
26103;DHT22;69760;49.380;8.998;2023-07-09T09:20:44;30.80;57.40
26103;DHT22;69760;49.380;8.998;2023-07-09T09:23:13;30.90;56.80
26103;DHT22;69760;49.380;8.998;2023-07-09T09:25:50;31.00;54.80
26103;DHT22;69760;49.380;8.998;2023-07-09T09:28:17;31.20;55.50
26103;DHT22;69760;49.380;8.998;2023-07-09T09:30:42;31.30;54.70
26103;DHT22;69760;49.380;8.998;2023-07-09T09:33:10;31.30;55.00
26103;DHT22;69760;49.380;8.998;2023-07-09T09:35:42;31.50;55.80
26103;DHT22;69760;49.380;8.998;2023-07-09T09:38:15;31.60;56.40
26103;DHT22;69760;49.380;8.998;2023-07-09T09:40:42;31.80;55.60
26103;DHT22;69760;49.380;8.998;2023-07-09T09:43:19;31.80;55.70
26103;DHT22;69760;49.380;8.998;2023-07-09T09:45:48;32.00;55.40
26103;DHT22;69760;49.380;8.998;2023-07-09T09:48:30;32.10;53.90
26103;DHT22;69760;49.380;8.998;2023-07-09T09:50:57;32.20;53.50
26103;DHT22;69760;49.380;8.998;2023-07-09T09:53:28;32.30;53.00
26103;DHT22;69760;49.380;8.998;2023-07-09T09:55:56;32.40;53.70
26103;DHT22;69760;49.380;8.998;2023-07-09T09:58:28;32.40;54.30
26103;DHT22;69760;49.380;8.998;2023-07-09T10:00:56;32.50;54.70
26103;DHT22;69760;49.380;8.998;2023-07-09T10:03:33;32.60;53.70
26103;DHT22;69760;49.380;8.998;2023-07-09T10:06:01;32.70;53.40
26103;DHT22;69760;49.380;8.998;2023-07-09T10:08:56;32.80;52.70
26103;DHT22;69760;49.380;8.998;2023-07-09T10:11:45;33.00;52.70
26103;DHT22;69760;49.380;8.998;2023-07-09T10:14:39;33.10;52.00
26103;DHT22;69760;49.380;8.998;2023-07-09T10:17:34;33.20;52.00
26103;DHT22;69760;49.380;8.998;2023-07-09T10:20:23;33.40;51.40
26103;DHT22;69760;49.380;8.998;2023-07-09T10:22:54;33.50;51.20
26103;DHT22;69760;49.380;8.998;2023-07-09T10:28:28;33.60;48.90
26103;DHT22;69760;49.380;8.998;2023-07-09T10:31:05;33.60;47.60
26103;DHT22;69760;49.380;8.998;2023-07-09T10:39:26;34.10;47.30
26103;DHT22;69760;49.380;8.998;2023-07-09T10:41:56;34.20;46.10
26103;DHT22;69760;49.380;8.998;2023-07-09T10:44:30;34.30;46.10
26103;DHT22;69760;49.380;8.998;2023-07-09T10:47:02;34.30;45.40
26103;DHT22;69760;49.380;8.998;2023-07-09T10:49:39;34.50;45.90
26103;DHT22;69760;49.380;8.998;2023-07-09T10:54:42;34.70;44.40
26103;DHT22;69760;49.380;8.998;2023-07-09T10:57:19;34.70;45.50
26103;DHT22;69760;49.380;8.998;2023-07-09T10:59:49;34.80;45.80
26103;DHT22;69760;49.380;8.998;2023-07-09T11:02:34;35.00;42.10
26103;DHT22;69760;49.380;8.998;2023-07-09T11:05:03;34.90;41.20
26103;DHT22;69760;49.380;8.998;2023-07-09T11:12:43;35.10;42.60
26103;DHT22;69760;49.380;8.998;2023-07-09T11:15:13;35.20;42.80
26103;DHT22;69760;49.380;8.998;2023-07-09T11:17:44;35.30;43.20
26103;DHT22;69760;49.380;8.998;2023-07-09T11:20:24;35.50;43.10
26103;DHT22;69760;49.380;8.998;2023-07-09T11:23:04;35.70;42.80
26103;DHT22;69760;49.380;8.998;2023-07-09T11:25:45;35.90;40.40
26103;DHT22;69760;49.380;8.998;2023-07-09T11:28:11;36.00;39.40
26103;DHT22;69760;49.380;8.998;2023-07-09T11:30:54;36.00;39.20
26103;DHT22;69760;49.380;8.998;2023-07-09T11:33:26;36.00;41.00
26103;DHT22;69760;49.380;8.998;2023-07-09T11:35:54;36.10;41.90
26103;DHT22;69760;49.380;8.998;2023-07-09T11:38:40;36.30;40.00
26103;DHT22;69760;49.380;8.998;2023-07-09T11:41:38;36.30;39.00
26103;DHT22;69760;49.380;8.998;2023-07-09T11:44:12;36.20;38.80
26103;DHT22;69760;49.380;8.998;2023-07-09T11:49:19;36.40;40.20
26103;DHT22;69760;49.380;8.998;2023-07-09T11:51:50;36.50;41.50
26103;DHT22;69760;49.380;8.998;2023-07-09T11:54:18;36.60;40.60
26103;DHT22;69760;49.380;8.998;2023-07-09T11:56:58;36.80;39.60
26103;DHT22;69760;49.380;8.998;2023-07-09T11:59:24;37.00;40.00
26103;DHT22;69760;49.380;8.998;2023-07-09T12:01:51;37.00;38.70
26103;DHT22;69760;49.380;8.998;2023-07-09T12:04:21;37.10;37.80
26103;DHT22;69760;49.380;8.998;2023-07-09T12:06:47;37.10;37.20
26103;DHT22;69760;49.380;8.998;2023-07-09T12:09:16;37.10;37.60
26103;DHT22;69760;49.380;8.998;2023-07-09T12:11:47;37.10;38.10
26103;DHT22;69760;49.380;8.998;2023-07-09T12:14:17;37.20;37.40
26103;DHT22;69760;49.380;8.998;2023-07-09T12:16:45;37.10;35.80
26103;DHT22;69760;49.380;8.998;2023-07-09T12:19:13;37.20;38.20
26103;DHT22;69760;49.380;8.998;2023-07-09T12:21:42;37.40;38.30
26103;DHT22;69760;49.380;8.998;2023-07-09T12:26:48;37.70;36.10
26103;DHT22;69760;49.380;8.998;2023-07-09T12:29:14;37.70;36.70
26103;DHT22;69760;49.380;8.998;2023-07-09T12:31:40;37.80;36.40
26103;DHT22;69760;49.380;8.998;2023-07-09T12:34:05;38.00;37.00
26103;DHT22;69760;49.380;8.998;2023-07-09T12:36:31;38.10;36.10
26103;DHT22;69760;49.380;8.998;2023-07-09T12:39:01;38.10;35.70
26103;DHT22;69760;49.380;8.998;2023-07-09T12:41:35;38.00;36.60
26103;DHT22;69760;49.380;8.998;2023-07-09T12:44:03;38.00;35.30
26103;DHT22;69760;49.380;8.998;2023-07-09T12:46:29;38.00;35.30
26103;DHT22;69760;49.380;8.998;2023-07-09T12:48:56;38.00;35.80
26103;DHT22;69760;49.380;8.998;2023-07-09T12:51:25;38.10;36.00
26103;DHT22;69760;49.380;8.998;2023-07-09T12:54:09;38.30;35.90
26103;DHT22;69760;49.380;8.998;2023-07-09T12:56:37;38.40;36.10
26103;DHT22;69760;49.380;8.998;2023-07-09T12:59:15;38.40;36.00
26103;DHT22;69760;49.380;8.998;2023-07-09T13:01:41;38.40;36.00
26103;DHT22;69760;49.380;8.998;2023-07-09T13:04:10;38.50;36.30
26103;DHT22;69760;49.380;8.998;2023-07-09T13:06:36;38.90;35.90
26103;DHT22;69760;49.380;8.998;2023-07-09T13:09:12;39.10;33.70
26103;DHT22;69760;49.380;8.998;2023-07-09T13:11:39;39.30;33.50
26103;DHT22;69760;49.380;8.998;2023-07-09T13:14:23;39.50;34.60
26103;DHT22;69760;49.380;8.998;2023-07-09T13:16:49;39.70;32.90
26103;DHT22;69760;49.380;8.998;2023-07-09T13:19:16;39.80;32.70
26103;DHT22;69760;49.380;8.998;2023-07-09T13:21:42;40.00;32.00
26103;DHT22;69760;49.380;8.998;2023-07-09T13:24:24;40.10;31.80
26103;DHT22;69760;49.380;8.998;2023-07-09T13:26:50;40.30;31.90
26103;DHT22;69760;49.380;8.998;2023-07-09T13:29:17;40.40;32.40
26103;DHT22;69760;49.380;8.998;2023-07-09T13:31:44;40.40;29.90
26103;DHT22;69760;49.380;8.998;2023-07-09T13:34:25;40.30;30.10
26103;DHT22;69760;49.380;8.998;2023-07-09T13:36:52;40.30;31.10
26103;DHT22;69760;49.380;8.998;2023-07-09T13:39:19;40.30;31.00
26103;DHT22;69760;49.380;8.998;2023-07-09T13:41:47;40.30;32.00
26103;DHT22;69760;49.380;8.998;2023-07-09T13:44:28;40.40;31.50
26103;DHT22;69760;49.380;8.998;2023-07-09T13:46:55;40.50;31.30
26103;DHT22;69760;49.380;8.998;2023-07-09T13:49:23;40.70;30.80
26103;DHT22;69760;49.380;8.998;2023-07-09T13:51:52;40.90;32.20
26103;DHT22;69760;49.380;8.998;2023-07-09T13:54:24;40.80;30.20
26103;DHT22;69760;49.380;8.998;2023-07-09T13:56:51;40.80;30.00
26103;DHT22;69760;49.380;8.998;2023-07-09T13:59:19;40.70;29.40
26103;DHT22;69760;49.380;8.998;2023-07-09T14:01:46;40.80;29.80
26103;DHT22;69760;49.380;8.998;2023-07-09T14:04:15;40.70;30.10
26103;DHT22;69760;49.380;8.998;2023-07-09T14:06:41;40.80;30.50
26103;DHT22;69760;49.380;8.998;2023-07-09T14:09:11;40.90;30.30
26103;DHT22;69760;49.380;8.998;2023-07-09T14:11:45;41.10;31.00
26103;DHT22;69760;49.380;8.998;2023-07-09T14:14:23;41.10;32.30
26103;DHT22;69760;49.380;8.998;2023-07-09T14:16:50;41.20;29.90
26103;DHT22;69760;49.380;8.998;2023-07-09T14:19:18;41.30;30.60
26103;DHT22;69760;49.380;8.998;2023-07-09T14:21:45;41.40;30.40
26103;DHT22;69760;49.380;8.998;2023-07-09T14:41:34;41.10;33.40
26103;DHT22;69760;49.380;8.998;2023-07-09T14:44:00;41.10;32.10
26103;DHT22;69760;49.380;8.998;2023-07-09T14:46:25;41.00;32.00
26103;DHT22;69760;49.380;8.998;2023-07-09T14:48:51;41.10;31.80
26103;DHT22;69760;49.380;8.998;2023-07-09T14:51:16;41.10;31.00
26103;DHT22;69760;49.380;8.998;2023-07-09T14:53:43;41.20;31.40
26103;DHT22;69760;49.380;8.998;2023-07-09T14:56:11;41.20;31.00
26103;DHT22;69760;49.380;8.998;2023-07-09T14:58:38;41.10;31.60
26103;DHT22;69760;49.380;8.998;2023-07-09T15:01:03;41.00;30.70
26103;DHT22;69760;49.380;8.998;2023-07-09T15:03:29;40.90;29.70
26103;DHT22;69760;49.380;8.998;2023-07-09T15:05:55;40.90;30.00
26103;DHT22;69760;49.380;8.998;2023-07-09T15:08:23;40.90;29.50
26103;DHT22;69760;49.380;8.998;2023-07-09T15:10:51;40.80;29.30
26103;DHT22;69760;49.380;8.998;2023-07-09T15:15:47;40.50;32.90
26103;DHT22;69760;49.380;8.998;2023-07-09T15:18:15;40.50;31.30
26103;DHT22;69760;49.380;8.998;2023-07-09T15:20:50;40.50;31.40
26103;DHT22;69760;49.380;8.998;2023-07-09T15:23:17;40.60;32.40
26103;DHT22;69760;49.380;8.998;2023-07-09T15:25:43;40.60;31.90
26103;DHT22;69760;49.380;8.998;2023-07-09T15:28:10;40.50;29.60
26103;DHT22;69760;49.380;8.998;2023-07-09T15:30:36;40.50;29.50
26103;DHT22;69760;49.380;8.998;2023-07-09T15:33:02;40.60;29.70
26103;DHT22;69760;49.380;8.998;2023-07-09T15:35:35;40.70;30.30
26103;DHT22;69760;49.380;8.998;2023-07-09T15:40:57;40.90;30.00
26103;DHT22;69760;49.380;8.998;2023-07-09T15:43:24;41.10;30.40
26103;DHT22;69760;49.380;8.998;2023-07-09T15:45:51;41.20;30.70
26103;DHT22;69760;49.380;8.998;2023-07-09T15:48:34;41.10;33.00
26103;DHT22;69760;49.380;8.998;2023-07-09T15:51:02;41.10;30.50
26103;DHT22;69760;49.380;8.998;2023-07-09T15:53:29;40.90;30.70
26103;DHT22;69760;49.380;8.998;2023-07-09T15:55:59;40.80;30.00
26103;DHT22;69760;49.380;8.998;2023-07-09T15:58:27;40.70;31.10
26103;DHT22;69760;49.380;8.998;2023-07-09T16:00:54;40.70;33.70
26103;DHT22;69760;49.380;8.998;2023-07-09T16:03:20;40.70;32.90
26103;DHT22;69760;49.380;8.998;2023-07-09T16:05:45;40.80;31.50
26103;DHT22;69760;49.380;8.998;2023-07-09T16:08:11;40.80;30.90
26103;DHT22;69760;49.380;8.998;2023-07-09T16:10:37;40.90;32.90
26103;DHT22;69760;49.380;8.998;2023-07-09T16:13:03;41.10;33.30
26103;DHT22;69760;49.380;8.998;2023-07-09T16:15:28;41.20;31.50
26103;DHT22;69760;49.380;8.998;2023-07-09T16:17:54;41.30;30.90
26103;DHT22;69760;49.380;8.998;2023-07-09T16:20:25;41.40;31.90
26103;DHT22;69760;49.380;8.998;2023-07-09T16:22:55;41.50;31.70
26103;DHT22;69760;49.380;8.998;2023-07-09T16:25:28;41.30;31.90
26103;DHT22;69760;49.380;8.998;2023-07-09T16:27:54;41.20;31.40
26103;DHT22;69760;49.380;8.998;2023-07-09T16:30:22;41.00;32.60
26103;DHT22;69760;49.380;8.998;2023-07-09T16:32:49;40.90;31.40
26103;DHT22;69760;49.380;8.998;2023-07-09T16:35:18;40.70;33.40
26103;DHT22;69760;49.380;8.998;2023-07-09T16:37:45;40.30;30.70
26103;DHT22;69760;49.380;8.998;2023-07-09T16:40:32;40.00;31.00
26103;DHT22;69760;49.380;8.998;2023-07-09T16:42:59;39.90;32.10
26103;DHT22;69760;49.380;8.998;2023-07-09T16:45:27;39.90;32.50
26103;DHT22;69760;49.380;8.998;2023-07-09T16:47:53;40.00;33.50
26103;DHT22;69760;49.380;8.998;2023-07-09T16:50:22;40.00;32.90
26103;DHT22;69760;49.380;8.998;2023-07-09T16:52:49;40.00;32.70
26103;DHT22;69760;49.380;8.998;2023-07-09T16:55:20;39.90;33.30
26103;DHT22;69760;49.380;8.998;2023-07-09T16:57:51;39.90;33.40
26103;DHT22;69760;49.380;8.998;2023-07-09T17:00:29;39.70;32.80
26103;DHT22;69760;49.380;8.998;2023-07-09T17:02:57;39.60;33.10
26103;DHT22;69760;49.380;8.998;2023-07-09T17:05:24;39.40;34.60
26103;DHT22;69760;49.380;8.998;2023-07-09T17:07:50;39.20;34.30
26103;DHT22;69760;49.380;8.998;2023-07-09T17:10:15;39.10;34.90
26103;DHT22;69760;49.380;8.998;2023-07-09T17:12:42;38.90;35.20
26103;DHT22;69760;49.380;8.998;2023-07-09T17:17:54;38.60;41.00
26103;DHT22;69760;49.380;8.998;2023-07-09T17:20:21;38.30;40.60
26103;DHT22;69760;49.380;8.998;2023-07-09T17:22:49;38.10;42.70
26103;DHT22;69760;49.380;8.998;2023-07-09T17:25:36;37.70;41.60
26103;DHT22;69760;49.380;8.998;2023-07-09T17:28:14;37.40;43.50
26103;DHT22;69760;49.380;8.998;2023-07-09T17:30:40;37.20;43.30
26103;DHT22;69760;49.380;8.998;2023-07-09T17:33:06;37.00;42.40
26103;DHT22;69760;49.380;8.998;2023-07-09T17:35:34;36.80;43.30
26103;DHT22;69760;49.380;8.998;2023-07-09T17:38:00;36.50;44.10
26103;DHT22;69760;49.380;8.998;2023-07-09T17:40:29;36.30;45.10
26103;DHT22;69760;49.380;8.998;2023-07-09T17:42:55;36.10;45.40
26103;DHT22;69760;49.380;8.998;2023-07-09T17:45:22;36.00;45.20
26103;DHT22;69760;49.380;8.998;2023-07-09T17:47:48;35.90;45.30
26103;DHT22;69760;49.380;8.998;2023-07-09T17:50:20;35.80;45.30
26103;DHT22;69760;49.380;8.998;2023-07-09T17:52:46;35.70;45.10
26103;DHT22;69760;49.380;8.998;2023-07-09T17:55:14;35.70;44.80
26103;DHT22;69760;49.380;8.998;2023-07-09T17:57:51;35.60;44.80
26103;DHT22;69760;49.380;8.998;2023-07-09T18:00:25;35.60;45.10
26103;DHT22;69760;49.380;8.998;2023-07-09T18:02:59;35.40;46.20
26103;DHT22;69760;49.380;8.998;2023-07-09T18:05:30;35.30;46.90
26103;DHT22;69760;49.380;8.998;2023-07-09T18:07:56;35.10;47.60
26103;DHT22;69760;49.380;8.998;2023-07-09T18:10:27;35.00;48.20
26103;DHT22;69760;49.380;8.998;2023-07-09T18:12:55;34.70;48.20
26103;DHT22;69760;49.380;8.998;2023-07-09T18:15:25;34.60;48.20
26103;DHT22;69760;49.380;8.998;2023-07-09T18:17:51;34.50;47.90
26103;DHT22;69760;49.380;8.998;2023-07-09T18:20:19;34.50;47.60
26103;DHT22;69760;49.380;8.998;2023-07-09T18:22:45;34.40;48.10
26103;DHT22;69760;49.380;8.998;2023-07-09T18:25:11;34.30;48.70
26103;DHT22;69760;49.380;8.998;2023-07-09T18:27:39;34.10;49.00
26103;DHT22;69760;49.380;8.998;2023-07-09T18:30:14;34.00;49.40
26103;DHT22;69760;49.380;8.998;2023-07-09T18:32:40;33.90;49.80
26103;DHT22;69760;49.380;8.998;2023-07-09T18:35:21;33.80;49.80
26103;DHT22;69760;49.380;8.998;2023-07-09T18:37:49;33.60;50.00
26103;DHT22;69760;49.380;8.998;2023-07-09T18:40:16;33.50;49.70
26103;DHT22;69760;49.380;8.998;2023-07-09T18:42:42;33.30;49.60
26103;DHT22;69760;49.380;8.998;2023-07-09T18:45:13;33.20;49.30
26103;DHT22;69760;49.380;8.998;2023-07-09T18:47:39;33.10;48.70
26103;DHT22;69760;49.380;8.998;2023-07-09T18:50:05;33.00;48.70
26103;DHT22;69760;49.380;8.998;2023-07-09T18:52:32;32.90;48.90
26103;DHT22;69760;49.380;8.998;2023-07-09T18:54:58;32.80;48.80
26103;DHT22;69760;49.380;8.998;2023-07-09T18:57:24;32.70;48.60
26103;DHT22;69760;49.380;8.998;2023-07-09T18:59:49;32.70;48.40
26103;DHT22;69760;49.380;8.998;2023-07-09T19:02:23;32.60;48.10
26103;DHT22;69760;49.380;8.998;2023-07-09T19:04:50;32.50;47.80
26103;DHT22;69760;49.380;8.998;2023-07-09T19:07:19;32.40;47.90
26103;DHT22;69760;49.380;8.998;2023-07-09T19:09:45;32.20;48.00
26103;DHT22;69760;49.380;8.998;2023-07-09T19:12:11;32.10;48.10
26103;DHT22;69760;49.380;8.998;2023-07-09T19:14:38;31.90;48.60
26103;DHT22;69760;49.380;8.998;2023-07-09T19:17:09;31.70;49.70
26103;DHT22;69760;49.380;8.998;2023-07-09T19:19:35;31.70;49.60
26103;DHT22;69760;49.380;8.998;2023-07-09T19:22:01;31.60;49.60
26103;DHT22;69760;49.380;8.998;2023-07-09T19:24:30;31.60;49.70
26103;DHT22;69760;49.380;8.998;2023-07-09T19:26:57;31.50;49.80
26103;DHT22;69760;49.380;8.998;2023-07-09T19:29:25;31.40;49.40
26103;DHT22;69760;49.380;8.998;2023-07-09T19:31:57;31.30;49.20
26103;DHT22;69760;49.380;8.998;2023-07-09T19:34:27;31.20;49.40
26103;DHT22;69760;49.380;8.998;2023-07-09T19:36:58;31.20;49.60
26103;DHT22;69760;49.380;8.998;2023-07-09T19:39:29;31.10;49.60
26103;DHT22;69760;49.380;8.998;2023-07-09T19:42:05;31.00;49.80
26103;DHT22;69760;49.380;8.998;2023-07-09T19:44:31;30.90;50.30
26103;DHT22;69760;49.380;8.998;2023-07-09T19:46:59;30.70;51.00
26103;DHT22;69760;49.380;8.998;2023-07-09T19:49:26;30.60;51.40
26103;DHT22;69760;49.380;8.998;2023-07-09T19:51:52;30.40;50.90
26103;DHT22;69760;49.380;8.998;2023-07-09T19:54:17;30.20;50.10
26103;DHT22;69760;49.380;8.998;2023-07-09T19:56:44;30.00;49.30
26103;DHT22;69760;49.380;8.998;2023-07-09T19:59:11;29.90;49.60
26103;DHT22;69760;49.380;8.998;2023-07-09T20:01:37;29.80;49.70
26103;DHT22;69760;49.380;8.998;2023-07-09T20:04:03;29.70;50.00
26103;DHT22;69760;49.380;8.998;2023-07-09T20:06:28;29.70;50.00
26103;DHT22;69760;49.380;8.998;2023-07-09T20:08:55;29.60;50.20
26103;DHT22;69760;49.380;8.998;2023-07-09T20:11:21;29.50;50.40
26103;DHT22;69760;49.380;8.998;2023-07-09T20:13:46;29.40;50.70
26103;DHT22;69760;49.380;8.998;2023-07-09T20:16:21;29.40;52.00
26103;DHT22;69760;49.380;8.998;2023-07-09T20:18:48;29.30;52.60
26103;DHT22;69760;49.380;8.998;2023-07-09T20:21:18;29.20;52.90
26103;DHT22;69760;49.380;8.998;2023-07-09T20:23:44;29.10;52.80
26103;DHT22;69760;49.380;8.998;2023-07-09T20:26:10;29.00;53.50
26103;DHT22;69760;49.380;8.998;2023-07-09T20:28:36;28.90;54.00
26103;DHT22;69760;49.380;8.998;2023-07-09T20:31:02;28.80;53.90
26103;DHT22;69760;49.380;8.998;2023-07-09T20:33:28;28.80;54.20
26103;DHT22;69760;49.380;8.998;2023-07-09T20:35:54;28.80;54.70
26103;DHT22;69760;49.380;8.998;2023-07-09T20:38:22;28.70;54.20
26103;DHT22;69760;49.380;8.998;2023-07-09T20:40:48;28.60;53.20
26103;DHT22;69760;49.380;8.998;2023-07-09T20:43:25;28.50;53.00
26103;DHT22;69760;49.380;8.998;2023-07-09T20:45:52;28.40;52.80
26103;DHT22;69760;49.380;8.998;2023-07-09T20:48:18;28.30;52.20
26103;DHT22;69760;49.380;8.998;2023-07-09T20:50:44;28.20;52.30
26103;DHT22;69760;49.380;8.998;2023-07-09T20:53:14;28.20;52.30
26103;DHT22;69760;49.380;8.998;2023-07-09T20:55:40;28.10;52.30
26103;DHT22;69760;49.380;8.998;2023-07-09T20:58:17;28.10;52.60
26103;DHT22;69760;49.380;8.998;2023-07-09T21:00:44;28.00;52.90
26103;DHT22;69760;49.380;8.998;2023-07-09T21:03:16;27.90;53.20
26103;DHT22;69760;49.380;8.998;2023-07-09T21:05:42;27.90;53.30
26103;DHT22;69760;49.380;8.998;2023-07-09T21:08:13;27.80;53.70
26103;DHT22;69760;49.380;8.998;2023-07-09T21:10:40;27.70;53.90
26103;DHT22;69760;49.380;8.998;2023-07-09T21:13:11;27.70;53.90
26103;DHT22;69760;49.380;8.998;2023-07-09T21:15:36;27.60;54.00
26103;DHT22;69760;49.380;8.998;2023-07-09T21:18:05;27.60;54.10
26103;DHT22;69760;49.380;8.998;2023-07-09T21:20:31;27.60;54.50
26103;DHT22;69760;49.380;8.998;2023-07-09T21:22:57;27.60;54.70
26103;DHT22;69760;49.380;8.998;2023-07-09T21:25:24;27.50;54.80
26103;DHT22;69760;49.380;8.998;2023-07-09T21:27:51;27.50;54.90
26103;DHT22;69760;49.380;8.998;2023-07-09T21:30:18;27.50;55.00
26103;DHT22;69760;49.380;8.998;2023-07-09T21:32:45;27.40;55.00
26103;DHT22;69760;49.380;8.998;2023-07-09T21:35:24;27.40;55.20
26103;DHT22;69760;49.380;8.998;2023-07-09T21:37:50;27.30;55.70
26103;DHT22;69760;49.380;8.998;2023-07-09T21:40:34;27.10;56.40
26103;DHT22;69760;49.380;8.998;2023-07-09T21:43:01;27.00;55.90
26103;DHT22;69760;49.380;8.998;2023-07-09T21:45:31;26.90;56.20
26103;DHT22;69760;49.380;8.998;2023-07-09T21:48:03;26.80;56.10
26103;DHT22;69760;49.380;8.998;2023-07-09T21:50:30;26.80;56.10
26103;DHT22;69760;49.380;8.998;2023-07-09T21:52:56;26.80;55.80
26103;DHT22;69760;49.380;8.998;2023-07-09T21:55:24;26.70;56.60
26103;DHT22;69760;49.380;8.998;2023-07-09T21:57:50;26.70;56.80
26103;DHT22;69760;49.380;8.998;2023-07-09T22:00:18;26.70;56.90
26103;DHT22;69760;49.380;8.998;2023-07-09T22:02:46;26.60;56.70
26103;DHT22;69760;49.380;8.998;2023-07-09T22:05:22;26.60;56.60
26103;DHT22;69760;49.380;8.998;2023-07-09T22:07:48;26.50;56.80
26103;DHT22;69760;49.380;8.998;2023-07-09T22:10:17;26.50;57.10
26103;DHT22;69760;49.380;8.998;2023-07-09T22:12:48;26.50;57.40
26103;DHT22;69760;49.380;8.998;2023-07-09T22:15:20;26.40;57.60
26103;DHT22;69760;49.380;8.998;2023-07-09T22:17:46;26.40;57.80
26103;DHT22;69760;49.380;8.998;2023-07-09T22:20:14;26.40;57.90
26103;DHT22;69760;49.380;8.998;2023-07-09T22:22:40;26.40;58.10
26103;DHT22;69760;49.380;8.998;2023-07-09T22:25:15;26.30;58.40
26103;DHT22;69760;49.380;8.998;2023-07-09T22:27:41;26.30;59.00
26103;DHT22;69760;49.380;8.998;2023-07-09T22:30:07;26.30;59.40
26103;DHT22;69760;49.380;8.998;2023-07-09T22:32:33;26.20;59.70
26103;DHT22;69760;49.380;8.998;2023-07-09T22:35:02;26.20;59.80
26103;DHT22;69760;49.380;8.998;2023-07-09T22:37:28;26.10;60.90
26103;DHT22;69760;49.380;8.998;2023-07-09T22:39:55;26.10;61.70
26103;DHT22;69760;49.380;8.998;2023-07-09T22:42:21;26.00;61.10